Time;durP1;ratioP1;P1;durP2;ratioP2;P2;SDS_P1;SDS_P2;PMS_P1;PMS_P2;Temp;Humidity;BMP_temperature;BMP_pressure;BME280_temperature;BME280_humidity;BME280_pressure;Samples;Min_cycle;Max_cycle;Signal;HPM_P1;HPM_P2
2022/03/03 00:00:23;;;;;;;29.23;18.70;;;-1.80;99.90;;;;;;5042802;28;20192;-82
2022/03/03 00:02:49;;;;;;;37.77;19.20;;;-1.80;99.90;;;;;;5061048;28;20174;-81
2022/03/03 00:05:15;;;;;;;29.97;16.73;;;-1.70;99.90;;;;;;5038390;28;20193;-83
2022/03/03 00:07:41;;;;;;;33.97;16.90;;;-1.60;99.90;;;;;;5041154;28;20616;-80
2022/03/03 00:10:08;;;;;;;25.47;13.37;;;-1.50;99.90;;;;;;5056035;28;20187;-84
2022/03/03 00:12:34;;;;;;;27.52;15.25;;;-1.60;99.90;;;;;;5059424;28;20432;-83
2022/03/03 00:15:00;;;;;;;31.93;16.47;;;-1.80;99.90;;;;;;5064147;28;20321;-83
2022/03/03 00:17:25;;;;;;;36.67;17.00;;;-1.80;99.90;;;;;;5066154;28;20201;-80
2022/03/03 00:19:51;;;;;;;33.93;17.37;;;-1.80;99.90;;;;;;5042019;28;20248;-80
2022/03/03 00:22:17;;;;;;;31.50;15.27;;;-1.80;99.90;;;;;;5043557;28;20199;-83
2022/03/03 00:24:43;;;;;;;40.97;20.43;;;-1.90;99.90;;;;;;5059563;28;20487;-80
2022/03/03 00:27:09;;;;;;;38.33;21.05;;;-1.80;99.90;;;;;;5043573;28;20246;-83
2022/03/03 00:29:35;;;;;;;35.27;16.73;;;-1.80;99.90;;;;;;5044679;28;20196;-81
2022/03/03 00:32:00;;;;;;;31.63;16.47;;;-1.90;99.90;;;;;;5061251;28;20471;-80
2022/03/03 00:34:26;;;;;;;35.13;16.07;;;-2.00;99.90;;;;;;5043359;28;20439;-80
2022/03/03 00:36:52;;;;;;;30.67;15.50;;;-2.00;99.90;;;;;;5057508;28;20188;-82
2022/03/03 00:39:17;;;;;;;32.43;16.67;;;-2.00;99.90;;;;;;5043531;28;21046;-82
2022/03/03 00:41:43;;;;;;;44.77;21.50;;;-1.90;99.90;;;;;;5058365;28;20213;-84
2022/03/03 00:44:09;;;;;;;25.70;14.80;;;-1.80;99.90;;;;;;5061436;28;20173;-81
2022/03/03 00:46:39;;;;;;;34.83;14.98;;;-1.80;99.90;;;;;;5060201;28;20602;-81
2022/03/03 00:49:05;;;;;;;31.00;15.55;;;-1.80;99.90;;;;;;5059849;28;20185;-81
2022/03/03 00:51:31;;;;;;;27.48;14.15;;;-2.10;99.90;;;;;;5038771;28;20689;-80
2022/03/03 00:53:57;;;;;;;24.17;12.93;;;-2.20;99.90;;;;;;5057413;28;20207;-80
2022/03/03 00:56:23;;;;;;;34.73;16.53;;;-2.30;99.90;;;;;;5031819;28;20209;-83
2022/03/03 00:58:48;;;;;;;26.67;15.30;;;-2.30;99.90;;;;;;5062295;28;20563;-83
2022/03/03 01:01:15;;;;;;;30.00;13.90;;;-2.40;99.90;;;;;;5061566;28;20179;-83
2022/03/03 01:03:41;;;;;;;27.75;16.70;;;-2.40;99.90;;;;;;5045647;28;20166;-80
2022/03/03 01:06:06;;;;;;;31.17;15.73;;;-2.40;99.90;;;;;;5042581;28;20185;-82
2022/03/03 01:08:32;;;;;;;26.77;13.80;;;-2.50;99.90;;;;;;5060031;28;20450;-83
2022/03/03 01:10:58;;;;;;;26.10;16.30;;;-2.50;99.90;;;;;;5039066;28;20181;-84
2022/03/03 01:13:24;;;;;;;27.43;15.80;;;-2.50;99.90;;;;;;5059003;28;20510;-83
2022/03/03 01:15:53;;;;;;;38.37;17.83;;;-2.50;99.90;;;;;;5045521;28;20189;-81
2022/03/03 01:18:19;;;;;;;42.90;19.42;;;-2.50;99.90;;;;;;5045715;28;20474;-83
2022/03/03 01:20:45;;;;;;;41.42;20.00;;;-2.40;99.90;;;;;;5057152;28;20177;-83
2022/03/03 01:23:10;;;;;;;38.63;18.77;;;-2.10;99.90;;;;;;5057321;28;20249;-82
2022/03/03 01:25:36;;;;;;;37.83;19.90;;;-2.00;99.90;;;;;;5042695;28;20172;-82
2022/03/03 01:28:01;;;;;;;32.10;17.80;;;-2.10;99.90;;;;;;5058599;28;20306;-81
2022/03/03 01:30:27;;;;;;;31.20;16.60;;;-2.20;99.90;;;;;;5060159;28;20229;-81
2022/03/03 01:32:53;;;;;;;33.37;16.93;;;-2.30;99.90;;;;;;5058844;28;20202;-83
2022/03/03 01:35:18;;;;;;;31.33;17.60;;;-2.30;99.90;;;;;;5054896;28;20212;-81
2022/03/03 01:37:44;;;;;;;38.30;19.63;;;-2.40;99.90;;;;;;5039620;28;20240;-80
2022/03/03 01:40:10;;;;;;;42.83;19.97;;;-2.40;99.90;;;;;;5059186;28;20177;-82
2022/03/03 01:42:36;;;;;;;49.47;22.42;;;-2.30;99.90;;;;;;5057806;28;20307;-82
2022/03/03 01:45:02;;;;;;;41.70;19.20;;;-2.30;99.90;;;;;;5068680;22;20353;-85
2022/03/03 01:47:28;;;;;;;46.58;18.20;;;-2.40;99.90;;;;;;5034291;28;20230;-86
2022/03/03 01:49:55;;;;;;;44.67;19.77;;;-2.10;99.90;;;;;;5040265;28;20264;-86
2022/03/03 01:52:21;;;;;;;36.13;20.85;;;-2.40;99.90;;;;;;5056383;28;20181;-85
2022/03/03 01:54:47;;;;;;;37.77;20.80;;;-2.50;99.90;;;;;;5046746;28;20200;-84
2022/03/03 01:57:17;;;;;;;43.08;18.17;;;-2.50;99.90;;;;;;5038690;28;20188;-85
2022/03/03 01:59:45;;;;;;;34.58;19.05;;;-2.70;99.90;;;;;;5037653;28;20197;-86
2022/03/03 02:02:11;;;;;;;31.55;18.15;;;-2.60;99.90;;;;;;5037925;28;20177;-85
2022/03/03 02:04:38;;;;;;;39.10;18.53;;;-2.70;99.90;;;;;;5055877;28;20530;-86
2022/03/03 02:07:05;;;;;;;42.33;19.33;;;-2.50;99.90;;;;;;5040545;28;20173;-86
2022/03/03 02:09:31;;;;;;;29.58;16.50;;;-2.50;99.90;;;;;;5037410;28;20256;-84
2022/03/03 02:11:56;;;;;;;35.07;18.37;;;-2.40;99.90;;;;;;5038111;28;20272;-85
2022/03/03 02:14:22;;;;;;;38.47;17.20;;;-2.50;99.90;;;;;;5052496;28;20235;-84
2022/03/03 02:16:47;;;;;;;43.00;19.30;;;-2.50;99.90;;;;;;5036864;28;22369;-84
2022/03/03 02:19:20;;;;;;;34.57;18.60;;;-2.50;99.90;;;;;;5025606;28;21162;-84
2022/03/03 02:21:51;;;;;;;32.83;19.20;;;-2.60;99.90;;;;;;5054831;28;20187;-83
2022/03/03 02:24:18;;;;;;;34.95;17.88;;;-2.60;99.90;;;;;;5032081;28;20193;-83
2022/03/03 02:26:44;;;;;;;41.28;17.85;;;-2.50;99.90;;;;;;5041579;28;20182;-86
2022/03/03 02:29:10;;;;;;;31.67;18.23;;;-2.50;99.90;;;;;;5053387;28;20200;-86
2022/03/03 02:31:36;;;;;;;32.93;18.40;;;-2.50;99.90;;;;;;5056293;28;20204;-85
2022/03/03 02:34:01;;;;;;;38.67;19.43;;;-2.40;99.90;;;;;;5055293;28;20299;-85
2022/03/03 02:36:28;;;;;;;35.80;19.17;;;-2.40;99.90;;;;;;5052499;28;20514;-86
2022/03/03 02:39:05;;;;;;;41.33;17.75;;;-2.40;99.90;;;;;;5041268;28;20212;-86
2022/03/03 02:41:31;;;;;;;41.35;19.77;;;-2.50;99.90;;;;;;5038486;28;20188;-85
2022/03/03 02:43:59;;;;;;;36.20;19.17;;;-2.50;99.90;;;;;;5024515;28;20244;-86
2022/03/03 02:46:24;;;;;;;37.50;20.77;;;-2.50;99.90;;;;;;5050993;28;20584;-85
2022/03/03 02:48:50;;;;;;;36.47;18.60;;;-2.50;99.90;;;;;;5051710;28;20277;-85
2022/03/03 02:51:16;;;;;;;36.05;19.73;;;-2.50;99.90;;;;;;5038359;28;20357;-84
2022/03/03 02:53:42;;;;;;;33.50;19.30;;;-2.50;99.90;;;;;;5036167;28;20254;-84
2022/03/03 02:56:08;;;;;;;52.33;20.93;;;-2.50;99.90;;;;;;5054747;28;20651;-83
2022/03/03 02:58:34;;;;;;;43.97;18.77;;;-2.50;99.90;;;;;;5063037;28;20471;-82
2022/03/03 03:01:01;;;;;;;44.07;20.37;;;-2.50;99.90;;;;;;5033408;28;20234;-83
2022/03/03 03:03:27;;;;;;;33.75;20.08;;;-1.60;99.90;;;;;;5052536;28;20173;-87
2022/03/03 03:05:53;;;;;;;33.00;18.37;;;-2.50;99.90;;;;;;5056183;28;20322;-86
2022/03/03 03:08:19;;;;;;;35.10;19.20;;;-2.60;99.90;;;;;;5038704;28;20509;-87
2022/03/03 03:10:44;;;;;;;41.87;20.87;;;-2.60;99.90;;;;;;5047548;28;20259;-87
2022/03/03 03:13:14;;;;;;;35.27;18.63;;;-2.60;99.90;;;;;;5036996;28;20591;-86
2022/03/03 03:15:43;;;;;;;37.92;21.17;;;-2.60;99.90;;;;;;5044768;28;20197;-86
2022/03/03 03:18:14;;;;;;;45.42;22.48;;;-2.70;99.90;;;;;;5026810;28;20210;-87
2022/03/03 03:20:41;;;;;;;40.30;20.58;;;-2.70;99.90;;;;;;5032000;28;20646;-87
2022/03/03 03:23:08;;;;;;;36.10;18.80;;;-2.70;99.90;;;;;;5038246;28;20181;-86
2022/03/03 03:25:33;;;;;;;39.55;20.15;;;-2.60;99.90;;;;;;5039667;28;20266;-86
2022/03/03 03:27:59;;;;;;;38.47;18.47;;;-2.70;99.90;;;;;;5049847;28;20181;-86
2022/03/03 03:30:25;;;;;;;40.03;20.23;;;;;;;;;;5035927;28;20610;-86
2022/03/03 03:32:51;;;;;;;42.67;20.80;;;-2.80;99.90;;;;;;5054573;28;20874;-86
2022/03/03 03:35:17;;;;;;;42.80;19.63;;;;;;;;;;5035179;28;20266;-86
2022/03/03 03:37:42;;;;;;;42.20;22.20;;;-2.80;99.90;;;;;;5023016;28;20181;-86
2022/03/03 03:40:09;;;;;;;42.60;21.53;;;-2.90;99.90;;;;;;5035631;28;20437;-86
2022/03/03 03:42:35;;;;;;;42.90;20.90;;;-2.80;99.90;;;;;;5037334;28;20276;-86
2022/03/03 03:45:00;;;;;;;40.55;20.52;;;-2.80;99.90;;;;;;5050905;28;20669;-87
2022/03/03 03:47:26;;;;;;;39.07;20.23;;;-2.80;99.90;;;;;;5037266;28;20189;-87
2022/03/03 03:49:52;;;;;;;35.50;18.83;;;-2.90;99.90;;;;;;5056575;28;20625;-87
2022/03/03 03:52:17;;;;;;;40.03;20.23;;;-3.00;99.90;;;;;;5044553;28;20185;-87
2022/03/03 03:54:43;;;;;;;36.33;18.40;;;-2.90;99.90;;;;;;5053938;28;20759;-87
2022/03/03 03:57:09;;;;;;;29.20;18.23;;;-2.90;99.90;;;;;;5061412;28;21126;-86
2022/03/03 03:59:35;;;;;;;34.30;17.63;;;-2.90;99.90;;;;;;5038868;28;20699;-86
2022/03/03 04:02:00;;;;;;;31.58;16.70;;;-3.00;99.90;;;;;;5035682;28;20180;-87
2022/03/03 04:04:26;;;;;;;21.30;11.80;;;-3.20;99.90;;;;;;5055775;28;20198;-86
2022/03/03 04:06:51;;;;;;;32.10;14.90;;;-3.30;99.90;;;;;;5060939;28;20181;-86
2022/03/03 04:09:17;;;;;;;32.90;17.00;;;-3.30;99.90;;;;;;5042859;28;20239;-86
2022/03/03 04:11:42;;;;;;;30.87;18.50;;;-3.40;99.90;;;;;;5042019;28;20204;-86
2022/03/03 04:14:08;;;;;;;45.87;20.20;;;-3.40;99.90;;;;;;5062005;28;20212;-86
2022/03/03 04:16:33;;;;;;;41.27;20.23;;;-3.50;99.90;;;;;;5041812;28;20660;-86
2022/03/03 04:18:59;;;;;;;44.20;20.67;;;-3.60;99.90;;;;;;5048799;28;20741;-86
2022/03/03 04:21:24;;;;;;;48.57;22.07;;;-3.40;99.90;;;;;;5046971;28;20195;-86
2022/03/03 04:23:50;;;;;;;41.80;20.70;;;-3.40;99.90;;;;;;5038591;28;20208;-86
2022/03/03 04:26:15;;;;;;;53.10;20.00;;;-3.50;99.90;;;;;;5038877;28;20230;-86
2022/03/03 04:28:41;;;;;;;36.23;20.30;;;-3.70;99.90;;;;;;5052821;28;20240;-86
2022/03/03 04:31:07;;;;;;;41.30;20.00;;;-3.70;99.90;;;;;;5054819;28;20271;-86
2022/03/03 04:33:32;;;;;;;45.77;21.93;;;-3.80;99.90;;;;;;5054948;28;20247;-86
2022/03/03 04:35:58;;;;;;;39.07;22.00;;;-3.80;99.90;;;;;;5045188;28;20185;-87
2022/03/03 04:38:25;;;;;;;44.75;23.83;;;-3.80;99.90;;;;;;5033035;28;20206;-86
2022/03/03 04:40:50;;;;;;;39.05;22.20;;;-3.80;99.90;;;;;;5044485;28;20274;-87
2022/03/03 04:43:16;;;;;;;39.97;20.40;;;-3.80;99.90;;;;;;5044256;28;20278;-86
2022/03/03 04:45:42;;;;;;;47.60;20.80;;;-3.70;99.90;;;;;;5037890;28;20205;-86
2022/03/03 04:48:09;;;;;;;41.78;21.95;;;-3.70;99.90;;;;;;5038174;28;20175;-86
2022/03/03 04:50:34;;;;;;;39.78;20.77;;;-3.70;99.90;;;;;;5038544;28;20640;-86
2022/03/03 04:53:00;;;;;;;43.40;20.80;;;-3.70;99.90;;;;;;5044495;28;20176;-86
2022/03/03 04:55:25;;;;;;;39.07;21.10;;;-3.70;99.90;;;;;;5039235;28;20260;-88
2022/03/03 04:57:51;;;;;;;44.43;22.10;;;-3.70;99.90;;;;;;5039853;28;20254;-85
2022/03/03 05:00:17;;;;;;;48.73;22.87;;;-3.70;99.90;;;;;;5040222;28;20702;-85
2022/03/03 05:02:43;;;;;;;38.35;22.00;;;-3.70;99.90;;;;;;5041035;28;20181;-86
2022/03/03 05:05:09;;;;;;;35.70;21.40;;;-3.70;99.90;;;;;;5059810;28;20201;-85
2022/03/03 05:07:35;;;;;;;45.40;20.63;;;-3.60;99.90;;;;;;5058814;28;20234;-85
2022/03/03 05:10:00;;;;;;;47.83;22.83;;;-3.50;99.90;;;;;;5038826;28;20270;-87
2022/03/03 05:12:27;;;;;;;47.80;19.60;;;-3.60;99.90;;;;;;5039407;28;20184;-86
2022/03/03 05:14:52;;;;;;;35.70;17.90;;;-3.60;99.90;;;;;;5046119;28;20199;-87
2022/03/03 05:17:18;;;;;;;43.17;19.20;;;-3.90;99.90;;;;;;5065645;28;20589;-85
2022/03/03 05:19:44;;;;;;;38.13;18.40;;;-3.80;99.90;;;;;;5044202;28;20470;-84
2022/03/03 05:22:10;;;;;;;41.00;20.30;;;-3.70;99.90;;;;;;5042264;28;20831;-85
2022/03/03 05:24:35;;;;;;;44.73;18.57;;;-3.80;99.90;;;;;;5038494;28;20204;-87
2022/03/03 05:27:01;;;;;;;39.60;18.43;;;-3.90;99.90;;;;;;5037674;28;20432;-85
2022/03/03 05:29:27;;;;;;;42.60;20.13;;;-3.80;99.90;;;;;;5038964;28;20898;-85
2022/03/03 05:31:54;;;;;;;34.22;18.52;;;-4.00;99.90;;;;;;5040314;28;20637;-85
2022/03/03 05:34:19;;;;;;;33.95;15.45;;;-4.00;99.90;;;;;;5055013;28;20193;-84
2022/03/03 05:36:45;;;;;;;43.43;22.07;;;;;;;;;;5052354;28;20192;-83
2022/03/03 05:39:11;;;;;;;43.38;20.75;;;-4.10;99.90;;;;;;5020658;28;20211;-83
2022/03/03 05:41:37;;;;;;;44.15;20.27;;;-4.10;99.90;;;;;;5038328;28;20183;-84
2022/03/03 05:44:04;;;;;;;44.20;21.70;;;-4.00;99.90;;;;;;5035734;28;20212;-84
2022/03/03 05:46:30;;;;;;;38.63;18.67;;;-3.90;99.90;;;;;;5053185;28;20175;-84
2022/03/03 05:48:56;;;;;;;45.63;22.23;;;-3.80;99.90;;;;;;5054888;28;20189;-84
2022/03/03 05:51:21;;;;;;;52.67;24.47;;;-3.70;99.90;;;;;;5038538;28;20833;-84
2022/03/03 05:53:47;;;;;;;46.50;21.43;;;-3.60;99.90;;;;;;5037053;28;20237;-85
2022/03/03 05:56:17;;;;;;;46.63;23.20;;;-3.40;99.90;;;;;;5034656;28;20277;-84
2022/03/03 05:58:46;;;;;;;44.85;20.42;;;-3.50;99.90;;;;;;5033565;28;20262;-84
2022/03/03 06:01:13;;;;;;;42.33;23.38;;;-3.60;99.90;;;;;;5050871;28;20185;-85
2022/03/03 06:03:39;;;;;;;40.95;22.38;;;-3.70;99.90;;;;;;5050066;28;21171;-85
2022/03/03 06:06:21;;;;;;;48.53;23.30;;;-3.70;99.90;;;;;;5027855;28;20299;-85
2022/03/03 06:09:04;;;;;;;43.95;22.02;;;-3.80;99.90;;;;;;5020996;28;20532;-85
2022/03/03 06:11:30;;;;;;;50.58;24.80;;;-3.80;99.90;;;;;;5027141;28;20208;-87
2022/03/03 06:14:07;;;;;;;49.63;24.40;;;-3.70;99.90;;;;;;5040328;28;20212;-84
2022/03/03 06:16:35;;;;;;;35.60;20.23;;;-3.60;99.90;;;;;;5033313;28;20181;-84
2022/03/03 06:19:02;;;;;;;35.35;18.48;;;-3.40;99.90;;;;;;5033871;28;20307;-84
2022/03/03 06:21:28;;;;;;;38.40;21.05;;;-3.30;99.90;;;;;;5037381;28;20235;-84
2022/03/03 06:23:53;;;;;;;49.87;23.17;;;-3.50;99.90;;;;;;5027338;28;20205;-82
2022/03/03 06:26:20;;;;;;;46.43;21.63;;;-3.50;99.90;;;;;;5012078;28;20594;-85
2022/03/03 06:28:46;;;;;;;41.42;20.13;;;-3.50;99.90;;;;;;5034712;28;20665;-84
2022/03/03 06:31:12;;;;;;;44.50;21.85;;;-3.40;99.90;;;;;;5029271;28;20237;-85
2022/03/03 06:33:38;;;;;;;43.67;23.20;;;-3.30;99.90;;;;;;5031216;28;20249;-84
2022/03/03 06:36:04;;;;;;;40.20;21.77;;;-3.20;99.90;;;;;;5049653;28;20412;-83
2022/03/03 06:38:31;;;;;;;54.08;24.67;;;-2.90;99.90;;;;;;5047947;28;20196;-84
2022/03/03 06:40:57;;;;;;;48.28;25.45;;;-2.50;99.90;;;;;;5030427;28;20181;-85
2022/03/03 06:43:24;;;;;;;68.35;27.35;;;-1.90;99.90;;;;;;5031433;28;20177;-85
2022/03/03 06:45:50;;;;;;;50.30;24.05;;;-1.80;99.90;;;;;;5035496;28;20196;-85
2022/03/03 06:48:16;;;;;;;63.03;24.88;;;-1.40;99.90;;;;;;5031134;28;20185;-84
2022/03/03 06:50:42;;;;;;;45.58;23.88;;;-1.00;99.90;;;;;;5025395;28;20200;-84
2022/03/03 06:53:08;;;;;;;48.10;22.97;;;-0.30;99.90;;;;;;5028703;28;20185;-84
2022/03/03 06:55:35;;;;;;;32.13;18.85;;;0.40;99.90;;;;;;5033067;28;20597;-84
2022/03/03 06:58:01;;;;;;;37.80;19.63;;;1.40;99.90;;;;;;5050553;28;20635;-84
2022/03/03 07:00:33;;;;;;;36.53;16.67;;;2.80;99.90;;;;;;5038110;28;20226;-84
2022/03/03 07:03:01;;;;;;;35.60;21.20;;;3.50;99.90;;;;;;5052199;28;20181;-85
2022/03/03 07:05:29;;;;;;;46.55;21.48;;;3.50;99.90;;;;;;5053889;28;20280;-84
2022/03/03 07:07:55;;;;;;;35.33;20.55;;;3.60;99.90;;;;;;5034382;28;20736;-84
2022/03/03 07:10:25;;;;;;;36.07;19.60;;;4.60;99.90;;;;;;5036301;28;20253;-84
2022/03/03 07:12:56;;;;;;;27.40;18.52;;;6.00;99.90;;;;;;5050443;28;20443;-83
2022/03/03 07:15:24;;;;;;;38.03;22.05;;;8.20;99.90;;;;;;5034279;28;20198;-83
2022/03/03 07:17:53;;;;;;;42.65;19.67;;;8.60;99.90;;;;;;5050442;28;20776;-83
2022/03/03 07:20:49;;;;;;;28.77;17.17;;;6.60;99.90;;;;;;5039354;28;20187;-83
2022/03/03 07:23:39;;;;;;;34.10;20.63;;;4.90;99.90;;;;;;5049749;28;20575;-83
2022/03/03 07:26:11;;;;;;;33.03;18.67;;;4.40;99.90;;;;;;5030419;28;20515;-85
2022/03/03 07:28:40;;;;;;;41.53;20.30;;;4.50;99.90;;;;;;5053945;28;20775;-85
2022/03/03 07:31:07;;;;;;;37.00;20.25;;;5.30;99.90;;;;;;5051310;28;20165;-85
2022/03/03 07:33:53;;;;;;;34.35;19.05;;;8.20;99.90;;;;;;5039179;28;20184;-84
2022/03/03 07:36:25;;;;;;;32.90;19.63;;;8.50;99.90;;;;;;5040059;28;20181;-84
2022/03/03 07:39:06;;;;;;;32.75;19.00;;;8.70;99.90;;;;;;5039906;28;20569;-84
2022/03/03 07:41:31;;;;;;;30.33;17.60;;;8.80;99.90;;;;;;5033081;28;20169;-84
2022/03/03 07:43:58;;;;;;;29.77;17.63;;;8.60;99.90;;;;;;5037963;28;20205;-85
2022/03/03 07:46:25;;;;;;;34.92;17.77;;;9.30;99.90;;;;;;5040511;28;20180;-84
2022/03/03 07:48:53;;;;;;;40.13;20.13;;;10.00;99.90;;;;;;5057671;28;22061;-85
2022/03/03 07:51:20;;;;;;;37.90;19.73;;;10.80;98.70;;;;;;5043712;28;20177;-85
2022/03/03 07:53:46;;;;;;;30.75;19.20;;;11.30;96.50;;;;;;5041664;28;20201;-85
2022/03/03 07:56:20;;;;;;;39.80;20.58;;;11.40;94.70;;;;;;5054295;28;20193;-85
2022/03/03 07:58:49;;;;;;;30.20;19.60;;;11.90;93.80;;;;;;5042214;28;20212;-85
2022/03/03 08:01:18;;;;;;;30.60;18.00;;;11.80;91.90;;;;;;5058336;28;20176;-85
2022/03/03 08:03:45;;;;;;;29.92;18.70;;;11.70;90.60;;;;;;5045811;28;20288;-85
2022/03/03 08:06:13;;;;;;;31.77;19.58;;;11.00;90.50;;;;;;5036676;28;20205;-85
2022/03/03 08:08:39;;;;;;;31.00;19.58;;;11.20;92.10;;;;;;5045758;28;20653;-85
2022/03/03 08:11:07;;;;;;;31.13;19.23;;;11.50;91.80;;;;;;5050989;28;20180;-84
2022/03/03 08:13:33;;;;;;;33.65;18.45;;;11.70;90.80;;;;;;5043082;28;20431;-85
2022/03/03 08:15:59;;;;;;;36.05;20.77;;;10.20;91.80;;;;;;5056746;28;20189;-85
2022/03/03 08:18:32;;;;;;;28.02;18.85;;;10.00;93.80;;;;;;5040103;28;20220;-86
2022/03/03 08:21:01;;;;;;;31.88;19.45;;;10.00;93.80;;;;;;5042933;28;20188;-85
2022/03/03 08:23:27;;;;;;;35.60;19.92;;;9.90;95.10;;;;;;5053095;28;20180;-85
2022/03/03 08:25:55;;;;;;;30.02;19.90;;;10.00;94.80;;;;;;5040722;28;20610;-85
2022/03/03 08:28:25;;;;;;;34.40;19.10;;;9.70;95.90;;;;;;5036591;28;20180;-85
2022/03/03 08:31:01;;;;;;;33.13;19.20;;;9.60;95.90;;;;;;5033934;28;20242;-85
2022/03/03 08:33:49;;;;;;;35.13;19.50;;;10.10;96.60;;;;;;5037480;28;20181;-84
2022/03/03 08:36:20;;;;;;;30.08;18.70;;;10.40;97.00;;;;;;5055035;28;20189;-84
2022/03/03 08:38:51;;;;;;;28.92;17.45;;;11.30;94.90;;;;;;5063979;28;20273;-85
2022/03/03 08:41:19;;;;;;;31.33;19.15;;;10.90;93.90;;;;;;5033345;28;20174;-85
2022/03/03 08:43:50;;;;;;;37.80;21.88;;;11.90;95.10;;;;;;5068217;28;20189;-85
2022/03/03 08:46:21;;;;;;;28.90;18.15;;;12.50;93.00;;;;;;5035931;28;20650;-85
2022/03/03 08:48:49;;;;;;;28.33;19.80;;;12.40;93.20;;;;;;5051720;28;20192;-85
2022/03/03 08:51:16;;;;;;;36.10;21.40;;;11.80;92.60;;;;;;5058185;28;20716;-84
2022/03/03 08:53:41;;;;;;;29.13;19.55;;;12.60;93.50;;;;;;5040050;28;20540;-84
2022/03/03 08:56:08;;;;;;;34.73;20.50;;;14.10;92.30;;;;;;5059034;28;20191;-85
2022/03/03 08:58:34;;;;;;;32.13;20.10;;;15.20;90.30;;;;;;5048712;28;20289;-85
2022/03/03 09:01:00;;;;;;;31.50;19.73;;;15.90;83.90;;;;;;5047412;28;20457;-85
2022/03/03 09:03:26;;;;;;;30.63;19.20;;;15.70;79.40;;;;;;5041809;28;20458;-85
2022/03/03 09:05:54;;;;;;;28.90;19.57;;;15.70;80.30;;;;;;5029545;28;20185;-84
2022/03/03 09:08:19;;;;;;;29.63;19.50;;;15.70;78.20;;;;;;5035911;28;20279;-84
2022/03/03 09:10:45;;;;;;;28.77;18.03;;;15.60;79.70;;;;;;5055492;28;20447;-85
2022/03/03 09:13:11;;;;;;;27.90;16.70;;;15.60;77.60;;;;;;5063559;28;20291;-84
2022/03/03 09:15:36;;;;;;;25.30;16.43;;;14.90;76.60;;;;;;5038574;28;20223;-81
2022/03/03 09:18:02;;;;;;;24.70;16.40;;;15.00;77.40;;;;;;5050232;28;21119;-83
2022/03/03 09:20:28;;;;;;;31.97;20.17;;;15.00;78.00;;;;;;5053835;28;20237;-83
2022/03/03 09:22:54;;;;;;;25.63;18.00;;;15.70;77.90;;;;;;5052087;28;20455;-84
2022/03/03 09:25:20;;;;;;;29.13;18.53;;;15.70;74.50;;;;;;5038239;28;20426;-82
2022/03/03 09:27:46;;;;;;;27.17;19.10;;;15.50;72.70;;;;;;5033691;28;20177;-83
2022/03/03 09:30:13;;;;;;;30.70;20.23;;;15.40;73.20;;;;;;5033428;28;20462;-83
2022/03/03 09:32:39;;;;;;;23.73;19.30;;;15.30;74.30;;;;;;5049733;28;20538;-83
2022/03/03 09:35:06;;;;;;;34.87;19.90;;;15.20;72.50;;;;;;5051706;28;20741;-82
2022/03/03 09:37:32;;;;;;;28.80;18.80;;;14.50;73.70;;;;;;5031729;28;20438;-84
2022/03/03 09:39:57;;;;;;;29.17;19.63;;;13.60;73.80;;;;;;5048715;28;20537;-85
2022/03/03 09:42:23;;;;;;;24.77;19.43;;;13.50;76.00;;;;;;5033300;28;20196;-83
2022/03/03 09:44:49;;;;;;;26.70;18.80;;;12.80;76.70;;;;;;5031331;28;20282;-82
2022/03/03 09:47:16;;;;;;;30.63;21.03;;;13.20;76.80;;;;;;5035137;28;20172;-85
2022/03/03 09:49:42;;;;;;;26.48;19.55;;;13.00;76.40;;;;;;5045778;28;20189;-82
2022/03/03 09:52:19;;;;;;;36.40;20.87;;;12.10;76.70;;;;;;5060831;28;20214;-83
2022/03/03 09:54:54;;;;;;;33.75;19.95;;;11.90;80.40;;;;;;5030224;28;20821;-85
2022/03/03 09:57:20;;;;;;;33.83;19.60;;;12.50;79.70;;;;;;5050610;28;20196;-84
2022/03/03 09:59:47;;;;;;;31.63;20.88;;;13.00;80.00;;;;;;5028016;28;20204;-84
2022/03/03 10:02:13;;;;;;;29.25;19.30;;;13.10;77.80;;;;;;5035337;28;20685;-85
2022/03/03 10:04:39;;;;;;;31.80;20.03;;;13.90;76.70;;;;;;5052964;28;20193;-85
2022/03/03 10:07:07;;;;;;;29.30;17.63;;;15.00;74.70;;;;;;5040234;28;20837;-84
2022/03/03 10:09:59;;;;;;;32.70;20.33;;;14.70;72.00;;;;;;5053103;28;20920;-85
2022/03/03 10:12:22;;;;;;;30.30;20.30;;;14.10;73.20;;;;;;5050624;28;20439;-82
2022/03/03 10:14:48;;;;;;;29.35;19.05;;;13.10;73.70;;;;;;5051597;28;20197;-85
2022/03/03 10:17:15;;;;;;;35.17;20.50;;;11.40;77.80;;;;;;5047297;28;20685;-84
2022/03/03 10:19:54;;;;;;;32.60;18.58;;;10.00;80.40;;;;;;5051630;28;20209;-83
2022/03/03 10:22:47;;;;;;;31.27;18.55;;;9.00;87.50;;;;;;5037122;28;20173;-86
2022/03/03 10:25:15;;;;;;;29.38;19.52;;;8.20;91.60;;;;;;5026838;28;20664;-85
2022/03/03 10:27:41;;;;;;;41.30;20.83;;;7.70;94.00;;;;;;5030204;28;20266;-85
2022/03/03 10:30:09;;;;;;;33.33;19.75;;;7.60;93.40;;;;;;5036456;28;20296;-85
2022/03/03 10:32:39;;;;;;;32.67;19.80;;;7.80;93.50;;;;;;5033672;28;20181;-85
2022/03/03 10:35:18;;;;;;;36.83;18.88;;;7.60;93.80;;;;;;5037570;28;20309;-85
2022/03/03 10:37:46;;;;;;;37.72;20.38;;;7.50;94.40;;;;;;5024692;28;20184;-85
2022/03/03 10:40:14;;;;;;;37.97;20.90;;;7.50;95.10;;;;;;5032178;28;20181;-86
2022/03/03 10:42:50;;;;;;;29.35;19.30;;;7.50;95.90;;;;;;5031156;28;20181;-85
2022/03/03 10:45:19;;;;;;;30.90;18.45;;;7.60;95.60;;;;;;5051627;28;20232;-85
2022/03/03 10:48:04;;;;;;;27.92;19.23;;;7.60;96.20;;;;;;5047280;28;20184;-85
2022/03/03 10:50:46;;;;;;;26.70;18.63;;;7.50;95.70;;;;;;5028844;28;20557;-86
2022/03/03 10:53:15;;;;;;;28.40;18.50;;;7.50;96.00;;;;;;5027037;28;20672;-86
2022/03/03 10:55:58;;;;;;;30.77;18.95;;;7.70;96.00;;;;;;5031758;28;20635;-85
2022/03/03 10:58:49;;;;;;;33.03;19.65;;;7.80;95.30;;;;;;5031858;28;20208;-85
2022/03/03 11:01:21;;;;;;;28.95;19.17;;;7.90;94.80;;;;;;5039521;28;20212;-85
2022/03/03 11:03:49;;;;;;;30.52;18.30;;;8.20;95.80;;;;;;5051539;28;20810;-85
2022/03/03 11:06:21;;;;;;;29.98;18.23;;;8.50;95.40;;;;;;5052646;28;20200;-85
2022/03/03 11:08:47;;;;;;;31.80;19.15;;;8.70;95.20;;;;;;5027615;28;20215;-84
2022/03/03 11:11:13;;;;;;;30.35;18.35;;;8.50;93.30;;;;;;5046708;28;20184;-85
2022/03/03 11:13:39;;;;;;;35.77;19.13;;;8.60;94.00;;;;;;5035997;28;20293;-85
2022/03/03 11:16:08;;;;;;;29.92;17.60;;;8.80;93.30;;;;;;5050160;28;20196;-85
2022/03/03 11:18:34;;;;;;;36.65;19.77;;;8.90;92.20;;;;;;5051128;28;20300;-85
2022/03/03 11:21:00;;;;;;;30.83;18.50;;;9.10;92.70;;;;;;5033207;28;20736;-86
2022/03/03 11:23:37;;;;;;;28.40;18.50;;;9.30;92.40;;;;;;5044930;28;20521;-85
2022/03/03 11:26:04;;;;;;;34.58;18.83;;;9.40;92.50;;;;;;5031208;28;20245;-85
2022/03/03 11:28:37;;;;;;;28.45;17.63;;;9.50;90.60;;;;;;5031558;28;20276;-85
2022/03/03 11:31:30;;;;;;;28.75;17.95;;;9.60;92.20;;;;;;5050631;28;20217;-85
2022/03/03 11:34:31;;;;;;;36.45;17.10;;;9.40;92.40;;;;;;5034559;28;20216;-85
2022/03/03 11:37:23;;;;;;;32.60;18.75;;;9.50;91.60;;;;;;5024432;28;20195;-84
2022/03/03 11:40:00;;;;;;;31.45;18.50;;;9.50;90.60;;;;;;5043589;28;20237;-84
2022/03/03 11:42:54;;;;;;;36.25;18.27;;;9.20;90.60;;;;;;5032658;28;20181;-84
2022/03/03 11:45:47;;;;;;;31.13;18.38;;;9.00;91.70;;;;;;5027570;28;20217;-85
2022/03/03 11:48:22;;;;;;;23.50;16.50;;;8.90;91.40;;;;;;5042544;28;20486;-85
2022/03/03 11:50:48;;;;;;;29.92;18.13;;;9.20;89.80;;;;;;5035767;28;20185;-84
2022/03/03 11:53:23;;;;;;;26.95;18.05;;;9.10;90.20;;;;;;5047536;28;20526;-85
2022/03/03 11:56:00;;;;;;;28.60;17.77;;;9.20;90.20;;;;;;5046569;28;20700;-84
2022/03/03 11:58:31;;;;;;;31.38;17.52;;;9.20;88.70;;;;;;5047553;28;20652;-85
2022/03/03 12:00:57;;;;;;;29.13;18.05;;;9.50;90.70;;;;;;5037415;28;20928;-85
2022/03/03 12:03:23;;;;;;;29.83;17.80;;;9.80;90.50;;;;;;5035523;28;20473;-84
2022/03/03 12:06:05;;;;;;;31.92;17.98;;;10.10;87.30;;;;;;5033442;28;20436;-85
2022/03/03 12:08:41;;;;;;;27.60;18.23;;;10.30;84.60;;;;;;5057761;28;20755;-83
2022/03/03 12:11:15;;;;;;;34.45;20.23;;;10.30;83.80;;;;;;5034105;28;20188;-81
2022/03/03 12:13:41;;;;;;;26.35;16.98;;;10.50;84.90;;;;;;5037232;28;20217;-81
2022/03/03 12:16:32;;;;;;;27.40;17.23;;;10.60;82.70;;;;;;5060158;28;20173;-80
2022/03/03 12:19:02;;;;;;;29.98;17.63;;;10.90;81.70;;;;;;5059650;28;20204;-80
2022/03/03 12:21:28;;;;;;;30.40;19.55;;;11.10;84.40;;;;;;5063212;28;20307;-80
2022/03/03 12:24:17;;;;;;;27.00;18.40;;;10.80;86.30;;;;;;5055977;28;20253;-81
2022/03/03 12:26:54;;;;;;;29.80;19.20;;;11.00;87.70;;;;;;5047695;28;20421;-80
2022/03/03 12:29:36;;;;;;;28.60;19.65;;;11.20;83.00;;;;;;5055826;28;20457;-80
2022/03/03 12:32:27;;;;;;;33.25;19.45;;;11.00;82.20;;;;;;5041588;28;20186;-83
2022/03/03 12:35:00;;;;;;;38.58;19.92;;;10.70;82.00;;;;;;5052842;28;20687;-82
2022/03/03 12:37:26;;;;;;;28.10;18.15;;;10.80;81.60;;;;;;5057366;28;20187;-80